Alcoa, Tennessee
Current Conditions -  °F | °C
As of 1:53 PM on Sunday 23 Nov 2014 (Local Time) from KTYS Reporting Station
Overcast Overcast  
Wind Chill: 52°   Ceiling: 7000
Heat Index: 52°   Visibility: 10mi
Dew Point: 48°   Wind: 5mph
Humidity: 86%   Direction: 50°NE
Pressure: 29.77"   Gusts: NA
Location:  35.77°N, 83.98°W
Report Text: KTYS 231853Z 05004KT 10SM FEW048 OVC070 11/09 A2977 RMK AO2 RAE27 PRESFR SLP080 P0000 T01110089
Loading
Personal Weather Stations






























Interactive Weather Map New forecast layout! Learn more

10-Day Weather Forecast

Advertisements
Track Severe Weather on mobile